sensor_id;sensor_type;location;lat;lon;timestamp;P1;P2;P0
61804;PMS7003;47725;47.912;7.356;2023-05-14T00:01:49;5.64;2.82;
61804;PMS7003;47725;47.912;7.356;2023-05-14T00:05:49;5.64;2.82;
61804;PMS7003;47725;47.912;7.356;2023-05-14T00:09:49;5.64;2.82;
61804;PMS7003;47725;47.912;7.356;2023-05-14T00:13:49;1.88;1.88;
61804;PMS7003;47725;47.912;7.356;2023-05-14T00:17:49;1.88;1.88;
61804;PMS7003;47725;47.912;7.356;2023-05-14T00:21:49;4.68;3.75;
61804;PMS7003;47725;47.912;7.356;2023-05-14T00:25:49;4.68;3.75;
61804;PMS7003;47725;47.912;7.356;2023-05-14T00:29:49;4.68;3.75;
61804;PMS7003;47725;47.912;7.356;2023-05-14T00:33:49;3.74;2.80;
61804;PMS7003;47725;47.912;7.356;2023-05-14T00:37:49;3.74;2.80;
61804;PMS7003;47725;47.912;7.356;2023-05-14T00:41:49;4.66;3.73;
61804;PMS7003;47725;47.912;7.356;2023-05-14T00:45:50;4.66;3.73;
61804;PMS7003;47725;47.912;7.356;2023-05-14T00:49:49;4.66;3.73;
61804;PMS7003;47725;47.912;7.356;2023-05-14T00:53:49;4.65;2.79;
61804;PMS7003;47725;47.912;7.356;2023-05-14T00:57:49;4.65;2.79;
61804;PMS7003;47725;47.912;7.356;2023-05-14T01:01:49;2.78;2.78;
61804;PMS7003;47725;47.912;7.356;2023-05-14T01:10:00;2.78;2.78;
61804;PMS7003;47725;47.912;7.356;2023-05-14T01:14:08;3.70;2.77;
61804;PMS7003;47725;47.912;7.356;2023-05-14T01:17:59;3.70;2.77;
61804;PMS7003;47725;47.912;7.356;2023-05-14T01:21:49;2.77;2.77;
61804;PMS7003;47725;47.912;7.356;2023-05-14T01:25:49;2.77;2.77;
61804;PMS7003;47725;47.912;7.356;2023-05-14T01:29:53;2.77;2.77;
61804;PMS7003;47725;47.912;7.356;2023-05-14T01:33:49;1.84;1.84;
61804;PMS7003;47725;47.912;7.356;2023-05-14T01:37:49;1.84;1.84;
61804;PMS7003;47725;47.912;7.356;2023-05-14T01:41:49;2.77;2.77;
61804;PMS7003;47725;47.912;7.356;2023-05-14T01:45:49;2.77;2.77;
61804;PMS7003;47725;47.912;7.356;2023-05-14T01:49:49;2.77;2.77;
61804;PMS7003;47725;47.912;7.356;2023-05-14T01:53:49;2.76;2.76;
61804;PMS7003;47725;47.912;7.356;2023-05-14T01:57:49;2.76;2.76;
61804;PMS7003;47725;47.912;7.356;2023-05-14T02:01:49;1.84;1.84;
61804;PMS7003;47725;47.912;7.356;2023-05-14T02:05:49;1.84;1.84;
61804;PMS7003;47725;47.912;7.356;2023-05-14T02:09:49;1.84;1.84;
61804;PMS7003;47725;47.912;7.356;2023-05-14T02:13:49;4.57;2.74;
61804;PMS7003;47725;47.912;7.356;2023-05-14T02:17:49;4.57;2.74;
61804;PMS7003;47725;47.912;7.356;2023-05-14T02:21:49;3.65;2.74;
61804;PMS7003;47725;47.912;7.356;2023-05-14T02:25:49;3.65;2.74;
61804;PMS7003;47725;47.912;7.356;2023-05-14T02:29:49;3.65;2.74;
61804;PMS7003;47725;47.912;7.356;2023-05-14T02:33:49;2.73;2.73;
61804;PMS7003;47725;47.912;7.356;2023-05-14T02:37:49;2.73;2.73;
61804;PMS7003;47725;47.912;7.356;2023-05-14T02:41:49;3.61;2.71;
61804;PMS7003;47725;47.912;7.356;2023-05-14T02:45:49;3.61;2.71;
61804;PMS7003;47725;47.912;7.356;2023-05-14T02:49:49;3.61;2.71;
61804;PMS7003;47725;47.912;7.356;2023-05-14T02:53:49;4.50;2.70;
61804;PMS7003;47725;47.912;7.356;2023-05-14T02:57:49;4.50;2.70;
61804;PMS7003;47725;47.912;7.356;2023-05-14T03:01:49;5.40;5.40;
61804;PMS7003;47725;47.912;7.356;2023-05-14T03:05:49;5.40;5.40;
61804;PMS7003;47725;47.912;7.356;2023-05-14T03:09:49;5.40;5.40;
61804;PMS7003;47725;47.912;7.356;2023-05-14T03:13:49;1.79;1.79;
61804;PMS7003;47725;47.912;7.356;2023-05-14T03:17:49;1.79;1.79;
61804;PMS7003;47725;47.912;7.356;2023-05-14T03:21:49;2.69;2.69;
61804;PMS7003;47725;47.912;7.356;2023-05-14T03:25:49;2.69;2.69;
61804;PMS7003;47725;47.912;7.356;2023-05-14T03:29:49;2.69;2.69;
61804;PMS7003;47725;47.912;7.356;2023-05-14T03:33:49;6.26;4.47;
61804;PMS7003;47725;47.912;7.356;2023-05-14T03:37:49;6.26;4.47;
61804;PMS7003;47725;47.912;7.356;2023-05-14T03:41:49;5.36;4.47;
61804;PMS7003;47725;47.912;7.356;2023-05-14T03:45:49;5.36;4.47;
61804;PMS7003;47725;47.912;7.356;2023-05-14T03:49:49;5.36;4.47;
61804;PMS7003;47725;47.912;7.356;2023-05-14T03:53:49;4.43;3.54;
61804;PMS7003;47725;47.912;7.356;2023-05-14T03:57:49;4.43;3.54;
61804;PMS7003;47725;47.912;7.356;2023-05-14T04:01:49;3.55;3.55;
61804;PMS7003;47725;47.912;7.356;2023-05-14T04:05:49;3.55;3.55;
61804;PMS7003;47725;47.912;7.356;2023-05-14T04:09:49;3.55;3.55;
61804;PMS7003;47725;47.912;7.356;2023-05-14T04:13:49;4.45;3.56;
61804;PMS7003;47725;47.912;7.356;2023-05-14T04:17:49;4.45;3.56;
61804;PMS7003;47725;47.912;7.356;2023-05-14T04:21:49;3.54;3.54;
61804;PMS7003;47725;47.912;7.356;2023-05-14T04:25:49;3.54;3.54;
61804;PMS7003;47725;47.912;7.356;2023-05-14T04:29:49;3.54;3.54;
61804;PMS7003;47725;47.912;7.356;2023-05-14T04:33:49;4.43;4.43;
61804;PMS7003;47725;47.912;7.356;2023-05-14T04:37:49;4.43;4.43;
61804;PMS7003;47725;47.912;7.356;2023-05-14T04:41:49;2.66;2.66;
61804;PMS7003;47725;47.912;7.356;2023-05-14T04:45:49;2.66;2.66;
61804;PMS7003;47725;47.912;7.356;2023-05-14T04:49:49;2.66;2.66;
61804;PMS7003;47725;47.912;7.356;2023-05-14T04:53:49;5.31;3.54;
61804;PMS7003;47725;47.912;7.356;2023-05-14T04:57:49;5.31;3.54;
61804;PMS7003;47725;47.912;7.356;2023-05-14T05:01:49;7.08;3.54;
61804;PMS7003;47725;47.912;7.356;2023-05-14T05:05:49;7.08;3.54;
61804;PMS7003;47725;47.912;7.356;2023-05-14T05:09:49;7.08;3.54;
61804;PMS7003;47725;47.912;7.356;2023-05-14T05:13:49;5.31;3.54;
61804;PMS7003;47725;47.912;7.356;2023-05-14T05:17:49;5.31;3.54;
61804;PMS7003;47725;47.912;7.356;2023-05-14T05:21:49;7.09;5.32;
61804;PMS7003;47725;47.912;7.356;2023-05-14T05:25:49;7.09;5.32;
61804;PMS7003;47725;47.912;7.356;2023-05-14T05:29:49;7.09;5.32;
61804;PMS7003;47725;47.912;7.356;2023-05-14T05:33:49;3.54;3.54;
61804;PMS7003;47725;47.912;7.356;2023-05-14T05:37:49;3.54;3.54;
61804;PMS7003;47725;47.912;7.356;2023-05-14T05:41:49;5.31;3.54;
61804;PMS7003;47725;47.912;7.356;2023-05-14T05:45:49;5.31;3.54;
61804;PMS7003;47725;47.912;7.356;2023-05-14T05:49:49;5.31;3.54;
61804;PMS7003;47725;47.912;7.356;2023-05-14T05:53:49;7.98;4.44;
61804;PMS7003;47725;47.912;7.356;2023-05-14T05:57:49;7.98;4.44;
61804;PMS7003;47725;47.912;7.356;2023-05-14T06:01:49;5.29;4.41;
61804;PMS7003;47725;47.912;7.356;2023-05-14T06:05:49;5.29;4.41;
61804;PMS7003;47725;47.912;7.356;2023-05-14T06:09:49;5.29;4.41;
61804;PMS7003;47725;47.912;7.356;2023-05-14T06:13:49;6.15;6.15;
61804;PMS7003;47725;47.912;7.356;2023-05-14T06:17:49;6.15;6.15;
61804;PMS7003;47725;47.912;7.356;2023-05-14T06:21:49;7.13;5.35;
61804;PMS7003;47725;47.912;7.356;2023-05-14T06:25:49;7.13;5.35;
61804;PMS7003;47725;47.912;7.356;2023-05-14T06:29:49;7.13;5.35;
61804;PMS7003;47725;47.912;7.356;2023-05-14T06:33:49;5.30;3.53;
61804;PMS7003;47725;47.912;7.356;2023-05-14T06:37:49;5.30;3.53;
61804;PMS7003;47725;47.912;7.356;2023-05-14T06:41:49;6.19;3.54;
61804;PMS7003;47725;47.912;7.356;2023-05-14T06:45:49;6.19;3.54;
61804;PMS7003;47725;47.912;7.356;2023-05-14T06:49:49;6.19;3.54;
61804;PMS7003;47725;47.912;7.356;2023-05-14T06:53:49;6.20;4.43;
61804;PMS7003;47725;47.912;7.356;2023-05-14T06:57:49;6.20;4.43;
61804;PMS7003;47725;47.912;7.356;2023-05-14T07:01:49;8.02;5.34;
61804;PMS7003;47725;47.912;7.356;2023-05-14T07:05:49;8.02;5.34;
61804;PMS7003;47725;47.912;7.356;2023-05-14T07:09:49;8.02;5.34;
61804;PMS7003;47725;47.912;7.356;2023-05-14T07:13:49;6.24;6.24;
61804;PMS7003;47725;47.912;7.356;2023-05-14T07:17:49;6.24;6.24;
61804;PMS7003;47725;47.912;7.356;2023-05-14T07:21:49;7.18;7.18;
61804;PMS7003;47725;47.912;7.356;2023-05-14T07:25:49;7.18;7.18;
61804;PMS7003;47725;47.912;7.356;2023-05-14T07:29:49;7.18;7.18;
61804;PMS7003;47725;47.912;7.356;2023-05-14T07:33:49;9.01;5.41;
61804;PMS7003;47725;47.912;7.356;2023-05-14T07:37:49;9.01;5.41;
61804;PMS7003;47725;47.912;7.356;2023-05-14T07:41:49;9.96;9.05;
61804;PMS7003;47725;47.912;7.356;2023-05-14T07:45:49;9.96;9.05;
61804;PMS7003;47725;47.912;7.356;2023-05-14T07:49:52;9.96;9.05;
61804;PMS7003;47725;47.912;7.356;2023-05-14T07:53:49;6.34;6.34;
61804;PMS7003;47725;47.912;7.356;2023-05-14T07:57:49;6.34;6.34;
61804;PMS7003;47725;47.912;7.356;2023-05-14T08:01:49;6.39;5.47;
61804;PMS7003;47725;47.912;7.356;2023-05-14T08:05:49;6.39;5.47;
61804;PMS7003;47725;47.912;7.356;2023-05-14T08:09:49;6.39;5.47;
61804;PMS7003;47725;47.912;7.356;2023-05-14T08:13:49;7.34;6.42;
61804;PMS7003;47725;47.912;7.356;2023-05-14T08:17:49;7.34;6.42;
61804;PMS7003;47725;47.912;7.356;2023-05-14T08:21:49;4.61;3.69;
61804;PMS7003;47725;47.912;7.356;2023-05-14T08:25:49;4.61;3.69;
61804;PMS7003;47725;47.912;7.356;2023-05-14T08:29:49;4.61;3.69;
61804;PMS7003;47725;47.912;7.356;2023-05-14T08:33:49;3.71;3.71;
61804;PMS7003;47725;47.912;7.356;2023-05-14T08:37:49;3.71;3.71;
61804;PMS7003;47725;47.912;7.356;2023-05-14T08:41:49;4.66;3.72;
61804;PMS7003;47725;47.912;7.356;2023-05-14T08:45:49;4.66;3.72;
61804;PMS7003;47725;47.912;7.356;2023-05-14T08:49:51;4.66;3.72;
61804;PMS7003;47725;47.912;7.356;2023-05-14T08:53:49;4.69;4.69;
61804;PMS7003;47725;47.912;7.356;2023-05-14T08:57:49;4.69;4.69;
61804;PMS7003;47725;47.912;7.356;2023-05-14T09:01:50;3.77;1.89;
61804;PMS7003;47725;47.912;7.356;2023-05-14T09:05:49;3.77;1.89;
61804;PMS7003;47725;47.912;7.356;2023-05-14T09:09:49;3.77;1.89;
61804;PMS7003;47725;47.912;7.356;2023-05-14T09:13:49;2.84;1.90;
61804;PMS7003;47725;47.912;7.356;2023-05-14T09:17:49;2.84;1.90;
61804;PMS7003;47725;47.912;7.356;2023-05-14T09:21:49;2.87;1.91;
61804;PMS7003;47725;47.912;7.356;2023-05-14T09:25:49;2.87;1.91;
61804;PMS7003;47725;47.912;7.356;2023-05-14T09:29:49;2.87;1.91;
61804;PMS7003;47725;47.912;7.356;2023-05-14T09:33:51;0.00;0.00;
61804;PMS7003;47725;47.912;7.356;2023-05-14T09:37:50;0.00;0.00;
61804;PMS7003;47725;47.912;7.356;2023-05-14T09:41:49;2.93;0.98;
61804;PMS7003;47725;47.912;7.356;2023-05-14T09:45:49;2.93;0.98;
61804;PMS7003;47725;47.912;7.356;2023-05-14T09:49:49;2.93;0.98;
61804;PMS7003;47725;47.912;7.356;2023-05-14T09:53:49;0.98;0.98;
61804;PMS7003;47725;47.912;7.356;2023-05-14T09:57:49;0.98;0.98;
61804;PMS7003;47725;47.912;7.356;2023-05-14T10:01:49;0.98;0.98;
61804;PMS7003;47725;47.912;7.356;2023-05-14T10:05:49;0.98;0.98;
61804;PMS7003;47725;47.912;7.356;2023-05-14T10:09:50;0.98;0.98;
61804;PMS7003;47725;47.912;7.356;2023-05-14T10:13:52;2.95;1.97;
61804;PMS7003;47725;47.912;7.356;2023-05-14T10:17:50;2.95;1.97;
61804;PMS7003;47725;47.912;7.356;2023-05-14T10:21:52;2.95;2.95;
61804;PMS7003;47725;47.912;7.356;2023-05-14T10:25:49;2.95;2.95;
61804;PMS7003;47725;47.912;7.356;2023-05-14T10:29:52;2.95;2.95;
61804;PMS7003;47725;47.912;7.356;2023-05-14T10:33:49;0.99;0.99;
61804;PMS7003;47725;47.912;7.356;2023-05-14T10:37:49;0.99;0.99;
61804;PMS7003;47725;47.912;7.356;2023-05-14T10:41:49;0.99;0.99;
61804;PMS7003;47725;47.912;7.356;2023-05-14T10:45:49;0.99;0.99;
61804;PMS7003;47725;47.912;7.356;2023-05-14T10:49:51;0.99;0.99;
61804;PMS7003;47725;47.912;7.356;2023-05-14T10:53:48;2.97;2.97;
61804;PMS7003;47725;47.912;7.356;2023-05-14T10:57:49;2.97;2.97;
61804;PMS7003;47725;47.912;7.356;2023-05-14T11:01:48;59.56;47.65;
61804;PMS7003;47725;47.912;7.356;2023-05-14T11:05:48;59.56;47.65;
61804;PMS7003;47725;47.912;7.356;2023-05-14T11:09:49;59.56;47.65;
61804;PMS7003;47725;47.912;7.356;2023-05-14T11:13:49;6.95;4.97;
61804;PMS7003;47725;47.912;7.356;2023-05-14T11:17:49;6.95;4.97;
61804;PMS7003;47725;47.912;7.356;2023-05-14T11:21:48;1.99;1.99;
61804;PMS7003;47725;47.912;7.356;2023-05-14T11:25:48;1.99;1.99;
61804;PMS7003;47725;47.912;7.356;2023-05-14T11:29:49;1.99;1.99;
61804;PMS7003;47725;47.912;7.356;2023-05-14T11:33:48;3.98;3.98;
61804;PMS7003;47725;47.912;7.356;2023-05-14T11:37:49;3.98;3.98;
61804;PMS7003;47725;47.912;7.356;2023-05-14T11:41:48;4.98;2.99;
61804;PMS7003;47725;47.912;7.356;2023-05-14T11:45:49;4.98;2.99;
61804;PMS7003;47725;47.912;7.356;2023-05-14T11:49:48;4.98;2.99;
61804;PMS7003;47725;47.912;7.356;2023-05-14T11:53:48;2.98;2.98;
61804;PMS7003;47725;47.912;7.356;2023-05-14T11:57:48;2.98;2.98;
61804;PMS7003;47725;47.912;7.356;2023-05-14T12:01:48;1.99;1.99;
61804;PMS7003;47725;47.912;7.356;2023-05-14T12:05:58;1.99;1.99;
61804;PMS7003;47725;47.912;7.356;2023-05-14T12:09:48;1.99;1.99;
61804;PMS7003;47725;47.912;7.356;2023-05-14T12:13:48;1.99;1.99;
61804;PMS7003;47725;47.912;7.356;2023-05-14T12:17:49;1.99;1.99;
61804;PMS7003;47725;47.912;7.356;2023-05-14T12:21:48;0.00;0.00;
61804;PMS7003;47725;47.912;7.356;2023-05-14T12:25:51;0.00;0.00;
61804;PMS7003;47725;47.912;7.356;2023-05-14T12:29:49;0.00;0.00;
61804;PMS7003;47725;47.912;7.356;2023-05-14T12:33:48;1.00;1.00;
61804;PMS7003;47725;47.912;7.356;2023-05-14T12:37:48;1.00;1.00;
61804;PMS7003;47725;47.912;7.356;2023-05-14T12:41:48;1.00;1.00;
61804;PMS7003;47725;47.912;7.356;2023-05-14T12:45:48;1.00;1.00;
61804;PMS7003;47725;47.912;7.356;2023-05-14T12:49:48;1.00;1.00;
61804;PMS7003;47725;47.912;7.356;2023-05-14T12:53:48;0.00;0.00;
61804;PMS7003;47725;47.912;7.356;2023-05-14T12:57:48;0.00;0.00;
61804;PMS7003;47725;47.912;7.356;2023-05-14T13:01:48;0.00;0.00;
61804;PMS7003;47725;47.912;7.356;2023-05-14T13:05:49;0.00;0.00;
61804;PMS7003;47725;47.912;7.356;2023-05-14T13:09:48;0.00;0.00;
61804;PMS7003;47725;47.912;7.356;2023-05-14T13:13:48;1.00;1.00;
61804;PMS7003;47725;47.912;7.356;2023-05-14T13:17:48;1.00;1.00;
61804;PMS7003;47725;47.912;7.356;2023-05-14T13:21:48;0.00;0.00;
61804;PMS7003;47725;47.912;7.356;2023-05-14T13:25:48;0.00;0.00;
61804;PMS7003;47725;47.912;7.356;2023-05-14T13:29:48;0.00;0.00;
61804;PMS7003;47725;47.912;7.356;2023-05-14T13:33:48;0.00;0.00;
61804;PMS7003;47725;47.912;7.356;2023-05-14T13:37:48;0.00;0.00;
61804;PMS7003;47725;47.912;7.356;2023-05-14T13:41:48;1.00;1.00;
61804;PMS7003;47725;47.912;7.356;2023-05-14T13:45:49;1.00;1.00;
61804;PMS7003;47725;47.912;7.356;2023-05-14T13:49:48;1.00;1.00;
61804;PMS7003;47725;47.912;7.356;2023-05-14T13:53:48;0.00;0.00;
61804;PMS7003;47725;47.912;7.356;2023-05-14T13:57:48;0.00;0.00;
61804;PMS7003;47725;47.912;7.356;2023-05-14T14:01:48;0.00;0.00;
61804;PMS7003;47725;47.912;7.356;2023-05-14T14:05:48;0.00;0.00;
61804;PMS7003;47725;47.912;7.356;2023-05-14T14:09:48;0.00;0.00;
61804;PMS7003;47725;47.912;7.356;2023-05-14T14:13:48;0.00;0.00;
61804;PMS7003;47725;47.912;7.356;2023-05-14T14:17:48;0.00;0.00;
61804;PMS7003;47725;47.912;7.356;2023-05-14T14:21:48;1.00;1.00;
61804;PMS7003;47725;47.912;7.356;2023-05-14T14:25:48;1.00;1.00;
61804;PMS7003;47725;47.912;7.356;2023-05-14T14:29:48;1.00;1.00;
61804;PMS7003;47725;47.912;7.356;2023-05-14T14:33:48;2.00;1.00;
61804;PMS7003;47725;47.912;7.356;2023-05-14T14:37:48;2.00;1.00;
61804;PMS7003;47725;47.912;7.356;2023-05-14T14:41:48;0.00;0.00;
61804;PMS7003;47725;47.912;7.356;2023-05-14T14:45:48;0.00;0.00;
61804;PMS7003;47725;47.912;7.356;2023-05-14T14:49:48;0.00;0.00;
61804;PMS7003;47725;47.912;7.356;2023-05-14T14:53:48;0.00;0.00;
61804;PMS7003;47725;47.912;7.356;2023-05-14T14:57:48;0.00;0.00;
61804;PMS7003;47725;47.912;7.356;2023-05-14T15:01:48;1.99;1.00;
61804;PMS7003;47725;47.912;7.356;2023-05-14T15:05:48;1.99;1.00;
61804;PMS7003;47725;47.912;7.356;2023-05-14T15:09:48;1.99;1.00;
61804;PMS7003;47725;47.912;7.356;2023-05-14T15:13:48;0.00;0.00;
61804;PMS7003;47725;47.912;7.356;2023-05-14T15:17:48;0.00;0.00;
61804;PMS7003;47725;47.912;7.356;2023-05-14T15:21:48;0.99;0.99;
61804;PMS7003;47725;47.912;7.356;2023-05-14T15:25:48;0.99;0.99;
61804;PMS7003;47725;47.912;7.356;2023-05-14T15:29:48;0.99;0.99;
61804;PMS7003;47725;47.912;7.356;2023-05-14T15:33:48;0.98;0.00;
61804;PMS7003;47725;47.912;7.356;2023-05-14T15:37:48;0.98;0.00;
61804;PMS7003;47725;47.912;7.356;2023-05-14T15:41:48;0.98;0.00;
61804;PMS7003;47725;47.912;7.356;2023-05-14T15:45:48;0.98;0.00;
61804;PMS7003;47725;47.912;7.356;2023-05-14T15:49:48;0.98;0.00;
61804;PMS7003;47725;47.912;7.356;2023-05-14T15:53:48;1.96;0.98;
61804;PMS7003;47725;47.912;7.356;2023-05-14T15:57:48;1.96;0.98;
61804;PMS7003;47725;47.912;7.356;2023-05-14T16:01:49;0.00;0.00;
61804;PMS7003;47725;47.912;7.356;2023-05-14T16:05:48;0.00;0.00;
61804;PMS7003;47725;47.912;7.356;2023-05-14T16:09:48;0.00;0.00;
61804;PMS7003;47725;47.912;7.356;2023-05-14T16:13:48;1.96;1.96;
61804;PMS7003;47725;47.912;7.356;2023-05-14T16:17:48;1.96;1.96;
61804;PMS7003;47725;47.912;7.356;2023-05-14T16:21:48;1.96;0.98;
61804;PMS7003;47725;47.912;7.356;2023-05-14T16:25:48;1.96;0.98;
61804;PMS7003;47725;47.912;7.356;2023-05-14T16:29:48;1.96;0.98;
61804;PMS7003;47725;47.912;7.356;2023-05-14T16:33:48;0.00;0.00;
61804;PMS7003;47725;47.912;7.356;2023-05-14T16:37:48;0.00;0.00;
61804;PMS7003;47725;47.912;7.356;2023-05-14T16:41:48;2.95;2.95;
61804;PMS7003;47725;47.912;7.356;2023-05-14T16:45:48;2.95;2.95;
61804;PMS7003;47725;47.912;7.356;2023-05-14T16:49:48;2.95;2.95;
61804;PMS7003;47725;47.912;7.356;2023-05-14T16:53:48;1.96;1.96;
61804;PMS7003;47725;47.912;7.356;2023-05-14T16:57:48;1.96;1.96;
61804;PMS7003;47725;47.912;7.356;2023-05-14T17:01:48;1.96;0.98;
61804;PMS7003;47725;47.912;7.356;2023-05-14T17:05:48;1.96;0.98;
61804;PMS7003;47725;47.912;7.356;2023-05-14T17:09:48;1.96;0.98;
61804;PMS7003;47725;47.912;7.356;2023-05-14T17:13:48;0.00;0.00;
61804;PMS7003;47725;47.912;7.356;2023-05-14T17:17:48;0.00;0.00;
61804;PMS7003;47725;47.912;7.356;2023-05-14T17:21:48;1.96;0.00;
61804;PMS7003;47725;47.912;7.356;2023-05-14T17:25:48;1.96;0.00;
61804;PMS7003;47725;47.912;7.356;2023-05-14T17:29:48;1.96;0.00;
61804;PMS7003;47725;47.912;7.356;2023-05-14T17:33:48;0.00;0.00;
61804;PMS7003;47725;47.912;7.356;2023-05-14T17:37:48;0.00;0.00;
61804;PMS7003;47725;47.912;7.356;2023-05-14T17:41:48;0.98;0.98;
61804;PMS7003;47725;47.912;7.356;2023-05-14T17:45:48;0.98;0.98;
61804;PMS7003;47725;47.912;7.356;2023-05-14T17:49:48;0.98;0.98;
61804;PMS7003;47725;47.912;7.356;2023-05-14T17:53:48;1.94;0.97;
61804;PMS7003;47725;47.912;7.356;2023-05-14T17:57:48;1.94;0.97;
61804;PMS7003;47725;47.912;7.356;2023-05-14T18:01:48;0.00;0.00;
61804;PMS7003;47725;47.912;7.356;2023-05-14T18:05:48;0.00;0.00;
61804;PMS7003;47725;47.912;7.356;2023-05-14T18:09:48;0.00;0.00;
61804;PMS7003;47725;47.912;7.356;2023-05-14T18:13:48;0.96;0.96;
61804;PMS7003;47725;47.912;7.356;2023-05-14T18:17:48;0.96;0.96;
61804;PMS7003;47725;47.912;7.356;2023-05-14T18:21:48;2.87;1.91;
61804;PMS7003;47725;47.912;7.356;2023-05-14T18:25:48;2.87;1.91;
61804;PMS7003;47725;47.912;7.356;2023-05-14T18:29:48;2.87;1.91;
61804;PMS7003;47725;47.912;7.356;2023-05-14T18:33:48;3.86;1.93;
61804;PMS7003;47725;47.912;7.356;2023-05-14T18:37:48;3.86;1.93;
61804;PMS7003;47725;47.912;7.356;2023-05-14T18:41:48;1.94;1.94;
61804;PMS7003;47725;47.912;7.356;2023-05-14T18:45:48;1.94;1.94;
61804;PMS7003;47725;47.912;7.356;2023-05-14T18:49:48;1.94;1.94;
61804;PMS7003;47725;47.912;7.356;2023-05-14T18:53:48;1.94;0.97;
61804;PMS7003;47725;47.912;7.356;2023-05-14T18:57:48;1.94;0.97;
61804;PMS7003;47725;47.912;7.356;2023-05-14T19:01:48;0.97;0.97;
61804;PMS7003;47725;47.912;7.356;2023-05-14T19:05:48;0.97;0.97;
61804;PMS7003;47725;47.912;7.356;2023-05-14T19:09:48;0.97;0.97;
61804;PMS7003;47725;47.912;7.356;2023-05-14T19:13:48;0.97;0.97;
61804;PMS7003;47725;47.912;7.356;2023-05-14T19:17:48;0.97;0.97;
61804;PMS7003;47725;47.912;7.356;2023-05-14T19:21:48;2.90;0.97;
61804;PMS7003;47725;47.912;7.356;2023-05-14T19:25:48;2.90;0.97;
61804;PMS7003;47725;47.912;7.356;2023-05-14T19:29:48;2.90;0.97;
61804;PMS7003;47725;47.912;7.356;2023-05-14T19:33:48;1.93;1.93;
61804;PMS7003;47725;47.912;7.356;2023-05-14T19:37:48;1.93;1.93;
61804;PMS7003;47725;47.912;7.356;2023-05-14T19:41:48;1.91;1.91;
61804;PMS7003;47725;47.912;7.356;2023-05-14T19:45:48;1.91;1.91;
61804;PMS7003;47725;47.912;7.356;2023-05-14T19:49:48;1.91;1.91;
61804;PMS7003;47725;47.912;7.356;2023-05-14T19:53:48;1.89;1.89;
61804;PMS7003;47725;47.912;7.356;2023-05-14T19:57:48;1.89;1.89;
61804;PMS7003;47725;47.912;7.356;2023-05-14T20:01:48;1.88;1.88;
61804;PMS7003;47725;47.912;7.356;2023-05-14T20:05:48;1.88;1.88;
61804;PMS7003;47725;47.912;7.356;2023-05-14T20:09:48;1.88;1.88;
61804;PMS7003;47725;47.912;7.356;2023-05-14T20:13:48;3.73;3.73;
61804;PMS7003;47725;47.912;7.356;2023-05-14T20:17:48;3.73;3.73;
61804;PMS7003;47725;47.912;7.356;2023-05-14T20:21:48;1.87;0.93;
61804;PMS7003;47725;47.912;7.356;2023-05-14T20:25:48;1.87;0.93;
61804;PMS7003;47725;47.912;7.356;2023-05-14T20:29:48;1.87;0.93;
61804;PMS7003;47725;47.912;7.356;2023-05-14T20:33:48;1.86;1.86;
61804;PMS7003;47725;47.912;7.356;2023-05-14T20:37:48;1.86;1.86;
61804;PMS7003;47725;47.912;7.356;2023-05-14T20:41:48;2.78;1.85;
61804;PMS7003;47725;47.912;7.356;2023-05-14T20:45:48;2.78;1.85;
61804;PMS7003;47725;47.912;7.356;2023-05-14T20:49:48;2.78;1.85;
61804;PMS7003;47725;47.912;7.356;2023-05-14T20:53:48;0.92;0.92;
61804;PMS7003;47725;47.912;7.356;2023-05-14T20:57:48;0.92;0.92;
61804;PMS7003;47725;47.912;7.356;2023-05-14T21:01:48;1.85;1.85;
61804;PMS7003;47725;47.912;7.356;2023-05-14T21:05:48;1.85;1.85;
61804;PMS7003;47725;47.912;7.356;2023-05-14T21:09:48;1.85;1.85;
61804;PMS7003;47725;47.912;7.356;2023-05-14T21:13:48;2.76;0.92;
61804;PMS7003;47725;47.912;7.356;2023-05-14T21:17:48;2.76;0.92;
61804;PMS7003;47725;47.912;7.356;2023-05-14T21:21:48;2.74;2.74;
61804;PMS7003;47725;47.912;7.356;2023-05-14T21:25:48;2.74;2.74;
61804;PMS7003;47725;47.912;7.356;2023-05-14T21:29:48;2.74;2.74;
61804;PMS7003;47725;47.912;7.356;2023-05-14T21:33:48;1.82;1.82;
61804;PMS7003;47725;47.912;7.356;2023-05-14T21:37:48;1.82;1.82;
61804;PMS7003;47725;47.912;7.356;2023-05-14T21:41:48;2.73;2.73;
61804;PMS7003;47725;47.912;7.356;2023-05-14T21:45:48;2.73;2.73;
61804;PMS7003;47725;47.912;7.356;2023-05-14T21:49:48;2.73;2.73;
61804;PMS7003;47725;47.912;7.356;2023-05-14T21:53:48;1.82;1.82;
61804;PMS7003;47725;47.912;7.356;2023-05-14T21:57:48;1.82;1.82;
61804;PMS7003;47725;47.912;7.356;2023-05-14T22:01:48;2.72;1.82;
61804;PMS7003;47725;47.912;7.356;2023-05-14T22:05:48;2.72;1.82;
61804;PMS7003;47725;47.912;7.356;2023-05-14T22:09:48;2.72;1.82;
61804;PMS7003;47725;47.912;7.356;2023-05-14T22:13:48;2.71;2.71;
61804;PMS7003;47725;47.912;7.356;2023-05-14T22:17:48;2.71;2.71;
61804;PMS7003;47725;47.912;7.356;2023-05-14T22:21:48;5.42;3.61;
61804;PMS7003;47725;47.912;7.356;2023-05-14T22:25:48;5.42;3.61;
61804;PMS7003;47725;47.912;7.356;2023-05-14T22:29:48;5.42;3.61;
61804;PMS7003;47725;47.912;7.356;2023-05-14T22:33:48;2.71;1.81;
61804;PMS7003;47725;47.912;7.356;2023-05-14T22:37:48;2.71;1.81;
61804;PMS7003;47725;47.912;7.356;2023-05-14T22:41:48;0.90;0.90;
61804;PMS7003;47725;47.912;7.356;2023-05-14T22:45:48;0.90;0.90;
61804;PMS7003;47725;47.912;7.356;2023-05-14T22:49:48;0.90;0.90;
61804;PMS7003;47725;47.912;7.356;2023-05-14T22:53:48;4.49;2.69;
61804;PMS7003;47725;47.912;7.356;2023-05-14T22:57:48;4.49;2.69;
61804;PMS7003;47725;47.912;7.356;2023-05-14T23:01:48;1.79;1.79;
61804;PMS7003;47725;47.912;7.356;2023-05-14T23:05:48;1.79;1.79;
61804;PMS7003;47725;47.912;7.356;2023-05-14T23:09:48;1.79;1.79;
61804;PMS7003;47725;47.912;7.356;2023-05-14T23:13:48;3.57;1.79;
61804;PMS7003;47725;47.912;7.356;2023-05-14T23:17:48;3.57;1.79;
61804;PMS7003;47725;47.912;7.356;2023-05-14T23:21:48;2.67;2.67;
61804;PMS7003;47725;47.912;7.356;2023-05-14T23:25:48;2.67;2.67;
61804;PMS7003;47725;47.912;7.356;2023-05-14T23:29:48;2.67;2.67;
61804;PMS7003;47725;47.912;7.356;2023-05-14T23:33:48;1.77;1.77;
61804;PMS7003;47725;47.912;7.356;2023-05-14T23:37:48;1.77;1.77;
61804;PMS7003;47725;47.912;7.356;2023-05-14T23:41:48;3.53;2.65;
61804;PMS7003;47725;47.912;7.356;2023-05-14T23:45:48;3.53;2.65;
61804;PMS7003;47725;47.912;7.356;2023-05-14T23:49:48;3.53;2.65;
61804;PMS7003;47725;47.912;7.356;2023-05-14T23:53:48;5.28;3.52;
61804;PMS7003;47725;47.912;7.356;2023-05-14T23:57:48;5.28;3.52;
